createdAt,value
2016-10-24T09:30:00.836Z,330
2016-10-24T09:31:00.991Z,335
2016-10-24T09:32:00.680Z,360
2016-10-24T09:33:00.673Z,395
2016-10-24T09:34:00.676Z,410
2016-10-24T09:35:00.968Z,415
2016-10-24T09:36:00.657Z,430
2016-10-24T09:37:00.643Z,400
2016-10-24T09:38:00.652Z,275
2016-10-24T09:39:00.639Z,320
2016-10-24T09:40:00.937Z,260
2016-10-24T09:41:00.646Z,300
2016-10-24T09:42:00.639Z,215
2016-10-24T09:43:00.629Z,205
2016-10-24T09:44:00.628Z,275
2016-10-24T09:45:00.627Z,270
2016-10-24T09:46:00.623Z,260
2016-10-24T09:47:00.610Z,270
2016-10-24T09:48:00.612Z,265
2016-10-24T09:49:00.593Z,280
2016-10-24T09:50:00.599Z,235
2016-10-24T09:51:00.603Z,240
2016-10-24T09:52:00.600Z,195
2016-10-24T09:53:00.577Z,305
2016-10-24T09:54:03.854Z,275
2016-10-24T09:55:02.008Z,350
2016-10-24T09:56:02.560Z,390
2016-10-24T09:57:02.789Z,405
2016-10-24T09:58:01.880Z,425
2016-10-24T09:59:00.569Z,445
2016-10-24T10:00:00.628Z,465
2016-10-24T10:01:00.553Z,465
2016-10-24T10:02:00.543Z,480
2016-10-24T10:03:02.517Z,480
2016-10-24T10:04:01.916Z,390
2016-10-24T10:05:02.939Z,335
2016-10-24T10:06:00.778Z,335
2016-10-24T10:07:00.531Z,335
2016-10-24T10:08:00.515Z,355
2016-10-24T10:09:00.547Z,445
2016-10-24T10:10:00.906Z,445
2016-10-24T10:11:00.545Z,425
2016-10-24T10:12:00.797Z,455
2016-10-24T10:13:00.531Z,430
2016-10-24T10:14:00.479Z,405
2016-10-24T10:15:00.485Z,375
2016-10-24T10:16:00.484Z,325
2016-10-24T10:17:00.475Z,285
2016-10-24T10:18:00.470Z,255
2016-10-24T10:19:00.473Z,235
2016-10-24T10:20:00.457Z,225
2016-10-24T10:21:00.459Z,220
2016-10-24T10:22:00.451Z,210
2016-10-24T10:23:00.462Z,215
2016-10-24T10:24:00.454Z,210
2016-10-24T10:25:00.752Z,280
2016-10-24T10:26:00.746Z,315
2016-10-24T10:27:00.431Z,340
2016-10-24T10:28:00.427Z,355
2016-10-24T10:32:00.775Z,350
2016-10-24T10:33:15.698Z,345
2016-10-24T10:34:01.559Z,325
2016-10-24T10:35:00.543Z,305
2016-10-24T10:36:00.395Z,315
2016-10-24T10:37:00.396Z,315
2016-10-24T10:38:30.663Z,275
2016-10-24T10:39:01.980Z,255
2016-10-24T10:40:16.399Z,210
2016-10-24T10:41:15.296Z,185
2016-10-24T10:42:00.379Z,170
2016-10-24T10:43:00.572Z,160
2016-10-24T10:44:00.510Z,160
2016-10-24T10:45:00.355Z,170
2016-10-24T10:46:00.353Z,170
2016-10-24T10:47:00.364Z,175
2016-10-24T10:48:00.652Z,180
2016-10-24T10:49:00.340Z,195
2016-10-24T10:50:00.344Z,195
2016-10-24T10:51:00.333Z,185
2016-10-24T10:52:00.323Z,175
2016-10-24T10:53:00.325Z,165
2016-10-24T10:54:00.794Z,160
2016-10-24T10:55:00.319Z,165
2016-10-24T10:56:00.311Z,175
2016-10-24T10:57:00.299Z,185
2016-10-24T10:58:00.304Z,200
2016-10-24T10:59:00.345Z,205
2016-10-24T11:00:00.316Z,215
2016-10-24T11:01:00.295Z,210
2016-10-24T11:02:00.321Z,205
2016-10-24T11:03:00.320Z,205
2016-10-24T11:04:00.284Z,210
2016-10-24T11:05:00.598Z,210
2016-10-24T11:06:00.274Z,210
2016-10-24T11:07:00.270Z,200
2016-10-24T11:08:00.251Z,195
2016-10-24T11:09:00.483Z,180
2016-10-24T11:10:00.249Z,180
2016-10-24T11:11:00.238Z,180
2016-10-24T11:12:03.127Z,185
2016-10-24T11:13:03.116Z,175
2016-10-24T11:14:02.578Z,155
2016-10-24T11:15:00.761Z,150
2016-10-24T11:16:00.847Z,160
2016-10-24T11:17:00.557Z,165
2016-10-24T11:18:00.215Z,175
2016-10-24T11:19:00.216Z,175
2016-10-24T11:20:00.207Z,180
2016-10-24T11:21:02.286Z,180
2016-10-24T11:22:02.900Z,180
2016-10-24T11:23:02.945Z,180
2016-10-24T11:24:01.554Z,185
2016-10-24T11:25:02.046Z,195
2016-10-24T11:26:00.158Z,200
2016-10-24T11:27:00.158Z,210
2016-10-24T11:28:00.149Z,220
2016-10-24T11:29:00.444Z,215
2016-10-24T11:30:00.139Z,205
2016-10-24T11:31:00.122Z,175
2016-10-24T11:32:00.127Z,160
2016-10-24T11:33:00.114Z,160
2016-10-24T11:34:00.407Z,170
2016-10-24T11:35:00.111Z,180
2016-10-24T11:36:00.104Z,195
2016-10-24T11:37:00.096Z,200
2016-10-24T11:38:00.091Z,200
2016-10-24T11:39:00.076Z,195
2016-10-24T11:40:00.068Z,180
2016-10-24T11:41:00.074Z,170
2016-10-24T11:42:00.360Z,165
2016-10-24T11:43:00.054Z,165
2016-10-24T11:44:00.047Z,170
2016-10-24T11:45:00.090Z,175
2016-10-24T11:46:00.344Z,180
2016-10-24T11:47:17.200Z,180
2016-10-24T11:48:01.777Z,180
2016-10-24T11:49:15.279Z,185
2016-10-24T11:50:00.563Z,180
2016-10-24T11:51:01.507Z,185
2016-10-24T11:51:59.997Z,195
2016-10-24T11:53:00.001Z,210
2016-10-24T11:53:59.997Z,220
2016-10-24T11:55:00.081Z,225
2016-10-24T11:56:29.801Z,220
2016-10-24T11:57:15.634Z,205
2016-10-24T11:58:00.962Z,190
2016-10-24T12:00:14.864Z,165
2016-10-24T12:00:59.947Z,165
2016-10-24T12:01:59.950Z,170
2016-10-24T12:03:00.225Z,175
2016-10-24T12:03:59.930Z,180
2016-10-24T12:04:59.923Z,180
2016-10-24T12:05:59.919Z,180
2016-10-24T12:06:59.911Z,185
2016-10-24T12:07:59.906Z,190
2016-10-24T12:08:59.896Z,195
2016-10-24T12:10:00.015Z,195
2016-10-24T12:10:59.880Z,190
2016-10-24T12:11:59.882Z,200
2016-10-24T12:12:59.867Z,205
2016-10-24T12:13:59.871Z,215
2016-10-24T12:14:59.855Z,225
2016-10-24T12:15:59.858Z,240
2016-10-24T12:17:00.148Z,250
2016-10-24T12:17:59.834Z,270
2016-10-24T12:18:59.828Z,290
2016-10-24T12:19:59.821Z,300
2016-10-24T12:21:00.111Z,305
2016-10-24T12:21:59.809Z,305
2016-10-24T12:22:59.819Z,295
2016-10-24T12:23:59.800Z,275
2016-10-24T12:24:59.786Z,255
2016-10-24T12:25:59.787Z,255
2016-10-24T12:26:59.776Z,270
2016-10-24T12:28:00.063Z,285
2016-10-24T12:28:59.771Z,300
2016-10-24T12:30:03.083Z,315
2016-10-24T12:32:00.883Z,335
2016-10-24T12:33:00.229Z,330
2016-10-24T12:34:01.386Z,315
2016-10-24T12:35:00.100Z,295
2016-10-24T12:35:59.737Z,270
2016-10-24T12:36:59.714Z,255
2016-10-24T12:37:59.728Z,250
2016-10-24T12:40:01.283Z,240
2016-10-24T12:41:00.975Z,225
2016-10-24T12:42:00.851Z,210
2016-10-24T12:43:00.381Z,205
2016-10-24T12:44:01.282Z,215
2016-10-24T12:44:59.679Z,220
2016-10-24T12:45:59.673Z,230
2016-10-24T12:46:59.671Z,240
2016-10-24T12:47:59.659Z,245
2016-10-24T12:48:59.646Z,250
2016-10-24T12:49:59.659Z,240
2016-10-24T12:50:59.640Z,230
2016-10-24T12:51:59.638Z,230
2016-10-24T12:52:59.625Z,230
2016-10-24T12:53:59.628Z,235
2016-10-24T12:54:59.613Z,240
2016-10-24T12:55:59.650Z,235
2016-10-24T12:56:59.616Z,225
2016-10-24T12:57:59.605Z,215
2016-10-24T12:58:59.643Z,215
2016-10-24T12:59:59.601Z,210
2016-10-24T13:00:59.588Z,215
2016-10-24T13:01:59.587Z,220
2016-10-24T13:02:59.873Z,220
2016-10-24T13:03:59.564Z,215
2016-10-24T13:05:14.876Z,205
2016-10-24T13:06:01.349Z,195
2016-10-24T13:08:01.043Z,185
2016-10-24T13:08:59.744Z,185
2016-10-24T13:09:59.882Z,180
2016-10-24T13:10:59.822Z,175
2016-10-24T13:11:59.522Z,170
2016-10-24T13:12:59.523Z,160
2016-10-24T13:13:59.519Z,155
2016-10-24T13:15:30.344Z,150
2016-10-24T13:16:01.308Z,145
2016-10-24T13:17:00.048Z,140
2016-10-24T13:18:00.385Z,140
2016-10-24T13:19:00.337Z,145
2016-10-24T13:19:59.468Z,145
2016-10-24T13:20:59.668Z,140
2016-10-24T13:21:59.768Z,135
2016-10-24T13:22:59.463Z,130
2016-10-24T13:23:59.755Z,115
2016-10-24T13:24:59.739Z,105
2016-10-24T13:25:59.439Z,100
2016-10-24T13:26:59.430Z,95
2016-10-24T13:27:59.417Z,95
2016-10-24T13:28:59.731Z,90
2016-10-24T13:29:59.413Z,85
2016-10-24T13:30:59.496Z,75
2016-10-24T13:31:59.402Z,70
2016-10-24T13:32:59.392Z,65
2016-10-24T13:33:59.386Z,65
2016-10-24T13:34:59.385Z,65
2016-10-24T13:35:59.383Z,65
2016-10-24T13:36:59.368Z,65
2016-10-24T13:37:59.356Z,65
2016-10-24T13:38:59.352Z,60
2016-10-24T13:39:59.658Z,60
2016-10-24T13:40:59.343Z,60
2016-10-24T13:41:59.325Z,60
2016-10-24T13:42:59.339Z,60
2016-10-24T13:43:59.331Z,60
2016-10-24T13:44:59.322Z,60
2016-10-24T13:45:59.309Z,55
2016-10-24T13:46:59.601Z,55
2016-10-24T13:48:00.355Z,55
2016-10-24T13:50:00.469Z,60
2016-10-24T13:51:00.586Z,60
2016-10-24T13:51:59.778Z,65
2016-10-24T13:52:59.262Z,70
2016-10-24T13:53:59.634Z,75
2016-10-24T13:54:59.847Z,75
2016-10-24T13:55:59.749Z,75
2016-10-24T13:56:59.267Z,75
2016-10-24T13:59:02.335Z,75
2016-10-24T14:00:00.983Z,75
2016-10-24T14:01:00.522Z,75
2016-10-24T14:01:59.988Z,75
2016-10-24T14:02:59.180Z,75
2016-10-24T14:03:59.446Z,80
2016-10-24T14:04:59.437Z,85
2016-10-24T14:05:59.187Z,90
2016-10-24T14:06:59.167Z,85
2016-10-24T14:07:59.154Z,90
2016-10-24T14:08:59.145Z,90
2016-10-24T14:09:59.143Z,85
2016-10-24T14:10:59.132Z,90
2016-10-24T14:11:59.133Z,80
2016-10-24T14:12:59.126Z,75
2016-10-24T14:13:59.117Z,75
2016-10-24T14:14:59.107Z,75
2016-10-24T14:15:59.409Z,75
2016-10-24T14:16:59.087Z,75
2016-10-24T14:17:59.084Z,75
2016-10-24T14:18:59.073Z,75
2016-10-24T14:19:59.060Z,75
2016-10-24T14:20:59.071Z,75
2016-10-24T14:21:59.063Z,70
2016-10-24T14:22:59.343Z,70
2016-10-24T14:24:59.085Z,60
2016-10-24T14:26:14.622Z,55
2016-10-24T14:26:59.664Z,55
2016-10-24T14:27:59.409Z,55
2016-10-24T14:28:58.995Z,50
2016-10-24T14:29:59.276Z,50
2016-10-24T14:30:58.987Z,50
2016-10-24T14:31:58.971Z,50
2016-10-24T14:33:00.809Z,50
2016-10-24T14:33:59.860Z,50
2016-10-24T14:34:59.750Z,45
2016-10-24T14:36:14.308Z,45
2016-10-24T14:36:58.934Z,45
2016-10-24T14:38:00.078Z,45
2016-10-24T14:38:59.168Z,45
2016-10-24T14:39:58.910Z,45
2016-10-24T14:40:58.906Z,50
2016-10-24T14:41:58.904Z,50
2016-10-24T14:42:58.893Z,55
2016-10-24T14:43:58.883Z,55
2016-10-24T14:44:58.872Z,50
2016-10-24T14:45:58.904Z,50
2016-10-24T14:46:58.857Z,50
2016-10-24T14:47:58.853Z,50
2016-10-24T14:48:58.842Z,50
2016-10-24T14:49:59.138Z,50
2016-10-24T14:50:58.833Z,50
2016-10-24T14:51:58.824Z,50
2016-10-24T14:52:58.806Z,50
2016-10-24T14:53:58.847Z,45
2016-10-24T14:54:58.825Z,45
2016-10-24T14:55:58.788Z,45
2016-10-24T14:56:58.777Z,40
2016-10-24T14:57:58.764Z,35
2016-10-24T14:58:58.760Z,35
2016-10-24T14:59:58.750Z,30
2016-10-24T15:00:58.740Z,30
2016-10-24T15:01:59.048Z,25
2016-10-24T15:02:59.027Z,25
2016-10-24T15:03:58.719Z,25
2016-10-24T15:04:58.761Z,20
2016-10-24T15:05:58.704Z,20
2016-10-24T15:07:02.098Z,20
2016-10-24T15:08:01.203Z,15
2016-10-24T15:09:02.368Z,15
2016-10-24T15:10:00.123Z,15
2016-10-24T15:10:59.918Z,15
2016-10-24T15:11:58.930Z,15
2016-10-24T15:12:58.644Z,15
2016-10-24T15:13:58.650Z,15
2016-10-24T15:14:58.667Z,15
2016-10-24T15:16:00.495Z,15
2016-10-24T15:17:00.282Z,15
2016-10-24T15:18:02.084Z,15
2016-10-24T15:19:00.397Z,15
2016-10-24T15:20:00.648Z,15
2016-10-24T15:20:58.581Z,15
2016-10-24T15:21:59.215Z,15
2016-10-24T15:22:58.894Z,10
2016-10-24T15:23:58.565Z,10
2016-10-24T15:24:58.550Z,10
2016-10-24T15:25:58.535Z,10
2016-10-24T15:26:58.529Z,10
2016-10-24T15:27:58.535Z,10
2016-10-24T15:28:58.516Z,10
2016-10-24T15:29:58.508Z,10
2016-10-24T15:30:58.500Z,5
2016-10-24T15:31:58.497Z,5
2016-10-24T15:32:58.477Z,5
2016-10-24T15:33:58.469Z,5
2016-10-24T15:34:58.470Z,5
2016-10-24T15:35:58.757Z,5
2016-10-24T15:36:58.447Z,5
2016-10-24T15:37:58.453Z,5
2016-10-24T15:38:58.769Z,5
2016-10-24T15:39:58.416Z,5
2016-10-24T15:40:58.419Z,5
2016-10-24T15:42:16.017Z,5
2016-10-24T15:42:58.744Z,0
2016-10-24T15:43:58.736Z,0
2016-10-24T15:44:58.689Z,0
2016-10-24T15:45:58.820Z,0
2016-10-24T15:46:58.561Z,0
2016-10-24T15:47:58.707Z,0
2016-10-24T15:48:58.345Z,0
2016-10-24T15:49:58.342Z,0
2016-10-24T15:51:28.159Z,0
2016-10-24T15:52:00.281Z,0
2016-10-24T15:52:59.464Z,0
2016-10-24T15:53:59.088Z,0
2016-10-24T15:54:58.579Z,0
2016-10-24T15:55:58.539Z,0
2016-10-24T15:56:58.531Z,0
2016-10-24T15:57:58.265Z,0
2016-10-24T15:58:58.322Z,0
2016-10-24T15:59:58.255Z,0
2016-10-24T16:00:58.240Z,0
2016-10-24T16:01:58.244Z,0
2016-10-24T16:02:58.228Z,0
2016-10-24T16:03:58.259Z,0
2016-10-24T16:04:58.212Z,0
2016-10-24T16:05:58.205Z,0
2016-10-24T16:06:58.497Z,0
2016-10-24T16:07:58.192Z,0
2016-10-24T16:08:58.182Z,0
2016-10-24T16:09:58.174Z,0
2016-10-24T16:10:58.449Z,0
2016-10-24T16:11:58.166Z,0
2016-10-24T16:12:58.132Z,0
2016-10-24T16:13:58.142Z,0
2016-10-24T16:14:58.141Z,0
2016-10-24T16:15:58.121Z,0
2016-10-24T16:16:58.107Z,0
2016-10-24T16:17:58.098Z,0
2016-10-24T16:18:58.129Z,0
2016-10-24T16:19:58.118Z,0
2016-10-24T16:20:58.122Z,0
2016-10-24T16:21:58.066Z,0
2016-10-24T16:22:58.052Z,0
2016-10-24T16:23:58.037Z,0
2016-10-24T16:26:02.232Z,0
2016-10-24T16:26:59.011Z,0
2016-10-24T16:28:00.022Z,0
2016-10-24T16:28:58.861Z,0
2016-10-24T16:29:58.692Z,0
2016-10-24T16:30:58.346Z,0
2016-10-24T16:31:57.967Z,0
2016-10-24T16:32:58.074Z,0
2016-10-24T16:34:00.140Z,0
2016-10-24T16:35:00.988Z,0
2016-10-24T16:36:00.405Z,0
2016-10-24T16:36:59.875Z,0
2016-10-24T16:37:59.120Z,0
2016-10-24T16:38:57.910Z,0
2016-10-24T16:39:57.914Z,0
2016-10-24T16:40:57.909Z,0
2016-10-24T16:41:58.034Z,0
2016-10-24T16:42:57.879Z,0
2016-10-24T16:43:57.874Z,0
2016-10-24T16:44:57.870Z,0
2016-10-24T16:45:57.855Z,0
2016-10-24T16:46:57.845Z,0
2016-10-24T16:47:57.832Z,0
2016-10-24T16:48:57.822Z,0
2016-10-24T16:49:57.820Z,0
2016-10-24T16:50:57.817Z,0
2016-10-24T16:51:58.106Z,0
2016-10-24T16:52:57.788Z,0
2016-10-24T16:53:58.084Z,0
2016-10-24T16:54:57.772Z,0
2016-10-24T16:55:57.777Z,0
2016-10-24T16:56:57.764Z,0
2016-10-24T16:57:57.754Z,0
2016-10-24T16:58:58.034Z,0
2016-10-24T17:00:13.194Z,0
2016-10-24T17:00:59.139Z,0
2016-10-24T17:01:58.429Z,0
2016-10-24T17:02:58.373Z,0
2016-10-24T17:03:58.445Z,0
2016-10-24T17:05:12.812Z,0
2016-10-24T17:05:57.684Z,0
2016-10-24T17:06:57.673Z,0
2016-10-24T17:07:57.822Z,0
2016-10-24T17:08:58.692Z,0
2016-10-24T17:09:58.703Z,0
2016-10-24T17:10:58.580Z,0
2016-10-24T17:13:12.728Z,0
2016-10-24T17:13:57.922Z,0
2016-10-24T17:14:57.753Z,0
2016-10-24T17:15:57.597Z,0
2016-10-24T17:16:57.597Z,0
2016-10-24T17:17:57.594Z,0
2016-10-24T17:18:57.574Z,0
2016-10-24T17:19:57.565Z,0
2016-10-24T17:20:57.557Z,0
2016-10-24T17:21:57.535Z,0
2016-10-24T17:22:57.534Z,0
2016-10-24T17:23:57.528Z,0
2016-10-24T17:24:57.520Z,0
2016-10-24T17:25:57.505Z,0
2016-10-24T17:26:57.520Z,0
2016-10-24T17:27:57.487Z,0
2016-10-24T17:28:57.490Z,0
2016-10-24T17:29:57.477Z,0
2016-10-24T17:30:57.463Z,0
2016-10-24T17:31:57.464Z,0
2016-10-24T17:32:57.449Z,0
2016-10-24T17:33:57.446Z,0
2016-10-24T17:34:57.731Z,0
2016-10-24T17:35:57.420Z,0
2016-10-24T17:36:57.518Z,0
2016-10-24T17:37:57.407Z,0
2016-10-24T17:38:57.398Z,0
2016-10-24T17:39:57.392Z,0
2016-10-24T17:40:57.377Z,0
2016-10-24T17:41:57.383Z,0
2016-10-24T17:44:59.422Z,0
2016-10-24T17:45:59.231Z,0
2016-10-24T17:46:58.018Z,0
2016-10-24T17:47:57.321Z,0
2016-10-24T17:48:57.362Z,0
2016-10-24T17:49:57.300Z,0
2016-10-24T17:50:57.291Z,0
2016-10-24T17:51:57.335Z,0
2016-10-24T17:54:00.301Z,0
2016-10-24T17:54:58.771Z,0
2016-10-24T17:55:58.051Z,0
2016-10-24T17:56:57.311Z,0
2016-10-24T17:57:58.291Z,0
2016-10-24T17:58:57.222Z,0
2016-10-24T17:59:57.210Z,0
2016-10-24T18:00:57.200Z,0
2016-10-24T18:01:57.203Z,0
2016-10-24T18:02:57.194Z,0
2016-10-24T18:03:57.179Z,0
2016-10-24T18:04:57.476Z,0
2016-10-24T18:05:57.164Z,0
2016-10-24T18:06:57.150Z,0
2016-10-24T18:07:57.142Z,0
2016-10-24T18:08:57.140Z,0
2016-10-24T18:09:57.130Z,0
2016-10-24T18:10:57.109Z,0
2016-10-24T18:11:57.108Z,0
2016-10-24T18:12:57.139Z,0
2016-10-24T18:13:57.097Z,0
2016-10-24T18:14:57.390Z,0
2016-10-24T18:15:57.103Z,0
2016-10-24T18:16:57.366Z,0
2016-10-24T18:17:57.080Z,0
2016-10-24T18:18:57.795Z,0
2016-10-24T18:19:57.898Z,0
2016-10-24T18:20:57.929Z,0
2016-10-24T18:21:58.233Z,0
2016-10-24T18:22:57.924Z,0
2016-10-24T18:23:57.104Z,0
2016-10-24T18:24:57.344Z,0
2016-10-24T18:25:56.985Z,0
2016-10-24T18:26:56.980Z,0
2016-10-24T18:27:57.517Z,0
2016-10-24T18:28:57.467Z,0
2016-10-24T18:29:57.661Z,0
2016-10-24T18:30:57.056Z,0
2016-10-24T18:31:56.936Z,0
2016-10-24T18:32:56.958Z,0
2016-10-24T18:33:56.955Z,0
2016-10-24T18:34:56.912Z,0
2016-10-24T18:35:56.903Z,0
2016-10-24T18:36:56.899Z,0
2016-10-24T18:37:56.878Z,0
2016-10-24T18:38:56.893Z,0
2016-10-24T18:39:56.867Z,0
2016-10-24T18:40:56.853Z,0
2016-10-24T18:41:56.852Z,0
2016-10-24T18:42:56.844Z,0
2016-10-24T18:43:56.828Z,0
2016-10-24T18:44:56.820Z,0
2016-10-24T18:45:56.816Z,0
2016-10-24T18:46:56.816Z,0
2016-10-24T18:47:56.795Z,0
2016-10-24T18:48:56.785Z,0
2016-10-24T18:49:56.789Z,0
2016-10-24T18:50:56.777Z,0
2016-10-24T18:51:57.100Z,0
2016-10-24T18:52:56.762Z,0
2016-10-24T18:53:56.778Z,0
2016-10-24T18:54:56.745Z,0
2016-10-24T18:55:56.718Z,0
2016-10-24T18:56:56.722Z,0
2016-10-24T18:57:56.714Z,0
2016-10-24T18:58:56.695Z,0
2016-10-24T18:59:56.702Z,0
2016-10-24T19:00:56.691Z,0
2016-10-24T19:02:59.578Z,0
2016-10-24T19:04:00.345Z,0
2016-10-24T19:04:57.847Z,0
2016-10-24T19:05:57.436Z,0
2016-10-24T19:06:56.631Z,0
2016-10-24T19:07:57.069Z,0
2016-10-24T19:08:56.621Z,0
2016-10-24T19:09:56.613Z,0
2016-10-24T19:11:58.190Z,0
2016-10-24T19:12:59.473Z,0
2016-10-24T19:13:57.539Z,0
2016-10-24T19:14:57.503Z,0
2016-10-24T19:15:56.666Z,0
2016-10-24T19:16:56.559Z,0
2016-10-24T19:17:56.846Z,0
2016-10-24T19:18:56.834Z,0
2016-10-24T19:19:56.535Z,0
2016-10-24T19:20:56.518Z,0
2016-10-24T19:21:56.509Z,0
2016-10-24T19:22:56.497Z,0
2016-10-24T19:23:56.492Z,0
2016-10-24T19:24:56.483Z,0
2016-10-24T19:25:56.476Z,0
2016-10-24T19:26:56.472Z,0
2016-10-24T19:27:56.462Z,0
2016-10-24T19:28:56.449Z,0
2016-10-24T19:29:56.447Z,0
2016-10-24T19:30:56.433Z,0
2016-10-24T19:31:56.416Z,0
2016-10-24T19:32:56.426Z,0
2016-10-24T19:33:56.412Z,0
2016-10-24T19:34:56.397Z,0
2016-10-24T19:35:56.381Z,0
2016-10-24T19:36:57.581Z,0
2016-10-24T19:37:57.825Z,0
2016-10-24T19:38:56.856Z,0
2016-10-24T19:39:56.362Z,0
2016-10-24T19:40:56.805Z,0
2016-10-24T19:41:56.944Z,0
2016-10-24T19:42:56.333Z,0
2016-10-24T19:43:56.410Z,0
2016-10-24T19:44:56.319Z,0
2016-10-24T19:45:57.612Z,0
2016-10-24T19:46:56.306Z,0
2016-10-24T19:48:11.461Z,0
2016-10-24T19:48:56.988Z,0
2016-10-24T19:49:56.876Z,0
2016-10-24T19:50:56.429Z,0
2016-10-24T19:51:56.255Z,0
2016-10-24T19:52:56.554Z,0
2016-10-24T19:53:56.289Z,0
2016-10-24T19:54:56.233Z,0
2016-10-24T19:55:56.227Z,0
2016-10-24T19:56:56.204Z,0
2016-10-24T19:57:56.211Z,0
2016-10-24T19:58:56.206Z,0
2016-10-24T19:59:56.203Z,0
2016-10-24T20:00:56.186Z,0
2016-10-24T20:01:56.170Z,0
2016-10-24T20:02:56.172Z,0
2016-10-24T20:03:56.457Z,0
2016-10-24T20:04:56.149Z,0
2016-10-24T20:05:56.138Z,0
2016-10-24T20:06:56.436Z,0
2016-10-24T20:07:56.125Z,0
2016-10-24T20:08:56.112Z,0
2016-10-24T20:09:56.106Z,0
2016-10-24T20:10:56.088Z,0
2016-10-24T20:11:56.092Z,0
2016-10-24T20:12:56.074Z,0
2016-10-24T20:13:56.069Z,0
2016-10-24T20:14:56.078Z,0
2016-10-24T20:15:56.064Z,0
2016-10-24T20:16:56.033Z,0
2016-10-24T20:17:56.041Z,0
2016-10-24T20:18:56.338Z,0
2016-10-24T20:19:57.609Z,0
2016-10-24T20:21:58.317Z,0
2016-10-24T20:22:56.994Z,0
2016-10-24T20:23:57.554Z,0
2016-10-24T20:24:55.982Z,0
2016-10-24T20:25:56.860Z,0
2016-10-24T20:26:55.961Z,0
2016-10-24T20:27:56.010Z,0
2016-10-24T20:28:58.078Z,0
2016-10-24T20:30:57.583Z,0
2016-10-24T20:31:56.772Z,0
2016-10-24T20:32:56.226Z,0
2016-10-24T20:33:55.899Z,0
2016-10-24T20:34:55.930Z,0
2016-10-24T20:35:55.892Z,0
2016-10-24T20:36:56.177Z,0
2016-10-24T20:37:55.870Z,0
2016-10-24T20:38:55.866Z,0
2016-10-24T20:39:55.871Z,0
2016-10-24T20:40:55.890Z,0
2016-10-24T20:41:55.842Z,0
2016-10-24T20:42:55.834Z,0
2016-10-24T20:43:55.818Z,0
2016-10-24T20:44:55.819Z,0
2016-10-24T20:45:55.808Z,0
2016-10-24T20:46:55.807Z,0
2016-10-24T20:47:55.791Z,0
2016-10-24T20:48:55.780Z,0
2016-10-24T20:49:55.768Z,0
2016-10-24T20:50:55.766Z,0
2016-10-24T20:51:55.768Z,0
2016-10-24T20:52:55.749Z,0
2016-10-24T20:53:55.735Z,0
2016-10-24T20:54:56.933Z,0
2016-10-24T20:55:56.114Z,0
2016-10-24T20:56:56.414Z,0
2016-10-24T20:58:55.754Z,0
2016-10-24T20:59:55.935Z,0
2016-10-24T21:00:55.682Z,0
2016-10-24T21:01:55.674Z,0
2016-10-24T21:02:55.675Z,0
2016-10-24T21:03:56.353Z,0
2016-10-24T21:05:10.586Z,0
2016-10-24T21:05:56.037Z,0
2016-10-24T21:06:55.734Z,0
2016-10-24T21:07:56.773Z,0
2016-10-24T21:08:55.770Z,0
2016-10-24T21:09:56.291Z,0
2016-10-24T21:10:55.999Z,0
2016-10-24T21:11:55.596Z,0
2016-10-24T21:12:55.582Z,0
2016-10-24T21:13:55.581Z,0
2016-10-24T21:14:55.610Z,0
2016-10-24T21:15:55.595Z,0
2016-10-24T21:16:55.558Z,0
2016-10-24T21:17:55.536Z,0
2016-10-24T21:18:55.552Z,0
2016-10-24T21:19:55.569Z,0
2016-10-24T21:20:55.531Z,0
2016-10-24T21:21:55.808Z,0
2016-10-24T21:22:55.511Z,0
2016-10-24T21:23:55.504Z,0
2016-10-24T21:24:55.494Z,0
2016-10-24T21:25:55.489Z,0
2016-10-24T21:26:55.739Z,0
2016-10-24T21:27:55.472Z,0
2016-10-24T21:28:55.460Z,0
2016-10-24T21:29:55.453Z,0
2016-10-24T21:30:55.444Z,0
2016-10-24T21:31:55.433Z,0
2016-10-24T21:32:55.421Z,0
2016-10-24T21:33:55.416Z,0
2016-10-24T21:34:55.409Z,0
2016-10-24T21:35:55.408Z,0
2016-10-24T21:36:55.389Z,0
2016-10-24T21:37:58.319Z,0
2016-10-24T21:39:56.553Z,0
2016-10-24T21:40:56.081Z,0
2016-10-24T21:41:57.449Z,0
2016-10-24T21:42:55.666Z,0
2016-10-24T21:43:55.685Z,0
2016-10-24T21:44:55.325Z,0
2016-10-24T21:45:55.319Z,0
2016-10-24T21:46:57.003Z,0
2016-10-24T21:48:57.203Z,0
2016-10-24T21:49:57.542Z,0
2016-10-24T21:50:57.129Z,0
2016-10-24T21:51:55.808Z,0
2016-10-24T21:52:56.329Z,0
2016-10-24T21:53:55.255Z,0
2016-10-24T21:54:55.247Z,0
2016-10-24T21:55:55.243Z,0
2016-10-24T21:56:55.235Z,0
2016-10-24T21:57:55.221Z,0
2016-10-24T21:58:55.217Z,0
2016-10-24T21:59:55.203Z,0
2016-10-24T22:00:55.210Z,0
2016-10-24T22:01:55.187Z,0
2016-10-24T22:02:55.189Z,0
2016-10-24T22:03:55.205Z,0
2016-10-24T22:04:55.174Z,0
2016-10-24T22:05:55.464Z,0
2016-10-24T22:06:55.148Z,0
2016-10-24T22:07:55.147Z,0
2016-10-24T22:08:55.131Z,0
2016-10-24T22:09:55.122Z,0
2016-10-24T22:10:55.127Z,0
2016-10-24T22:11:55.103Z,0
2016-10-24T22:12:55.094Z,0
2016-10-24T22:13:55.309Z,0
2016-10-24T22:14:56.831Z,0
2016-10-24T22:15:55.478Z,0
2016-10-24T22:16:55.821Z,0
2016-10-24T22:17:56.109Z,0
2016-10-24T22:18:55.053Z,0
2016-10-24T22:19:55.085Z,0
2016-10-24T22:20:55.038Z,0
2016-10-24T22:21:55.027Z,0
2016-10-24T22:22:57.123Z,0
2016-10-24T22:23:56.762Z,0
2016-10-24T22:25:56.142Z,0
2016-10-24T22:26:55.995Z,0
2016-10-24T22:27:55.144Z,0
2016-10-24T22:28:54.966Z,0
2016-10-24T22:29:55.271Z,0
2016-10-24T22:30:54.951Z,0
2016-10-24T22:31:54.948Z,0
2016-10-24T22:32:54.960Z,0
2016-10-24T22:33:54.935Z,0
2016-10-24T22:34:54.926Z,0
2016-10-24T22:35:54.914Z,0
2016-10-24T22:36:54.906Z,0
2016-10-24T22:37:55.200Z,0
2016-10-24T22:38:54.895Z,0
2016-10-24T22:39:54.883Z,0
2016-10-24T22:40:55.179Z,0
2016-10-24T22:41:54.860Z,0
2016-10-24T22:42:54.856Z,0
2016-10-24T22:43:55.162Z,0
2016-10-24T22:44:54.848Z,0
2016-10-24T22:45:54.832Z,0
2016-10-24T22:46:54.832Z,0
2016-10-24T22:47:54.820Z,0
2016-10-24T22:48:54.807Z,0
2016-10-24T22:49:55.404Z,0
2016-10-24T22:50:54.793Z,0
2016-10-24T22:51:54.780Z,0
2016-10-24T22:52:54.779Z,0
2016-10-24T22:53:54.803Z,0
2016-10-24T22:54:54.801Z,0
2016-10-24T22:55:54.764Z,0
2016-10-24T22:56:54.745Z,0
2016-10-24T22:57:55.038Z,0
2016-10-24T22:58:54.735Z,0
2016-10-24T22:59:54.722Z,0
2016-10-24T23:00:54.721Z,0
2016-10-24T23:01:54.709Z,0
2016-10-24T23:02:54.700Z,0
2016-10-24T23:03:55.004Z,0
2016-10-24T23:04:54.984Z,0
2016-10-24T23:05:54.698Z,0
2016-10-24T23:06:54.668Z,0
2016-10-24T23:07:54.961Z,0
2016-10-24T23:08:54.957Z,0
2016-10-24T23:09:54.640Z,0
2016-10-24T23:10:54.627Z,0
2016-10-24T23:11:54.676Z,0
2016-10-24T23:12:54.933Z,0
2016-10-24T23:13:54.637Z,0
2016-10-24T23:14:54.610Z,0
2016-10-24T23:15:54.589Z,0
2016-10-24T23:16:54.583Z,0
2016-10-24T23:17:54.584Z,0
2016-10-24T23:18:54.577Z,0
2016-10-24T23:19:54.561Z,0
2016-10-24T23:20:54.892Z,0
2016-10-24T23:21:54.563Z,0
2016-10-24T23:22:54.542Z,0
2016-10-24T23:23:54.530Z,0
2016-10-24T23:24:54.523Z,0
2016-10-24T23:25:54.515Z,0
2016-10-24T23:26:54.506Z,0
2016-10-24T23:27:54.511Z,0
2016-10-24T23:28:54.504Z,0
2016-10-24T23:29:54.483Z,0
2016-10-24T23:30:54.781Z,0
2016-10-24T23:31:56.926Z,0
2016-10-24T23:32:55.384Z,0
2016-10-24T23:33:55.050Z,0
2016-10-24T23:35:09.363Z,0
2016-10-24T23:36:09.851Z,0
2016-10-24T23:36:55.134Z,0
2016-10-24T23:37:54.432Z,0
2016-10-24T23:38:54.616Z,0
2016-10-24T23:39:54.396Z,0
2016-10-24T23:40:56.094Z,0
2016-10-24T23:41:55.933Z,0
2016-10-24T23:42:54.771Z,0
2016-10-24T23:45:54.563Z,0
2016-10-24T23:46:54.846Z,0
2016-10-24T23:47:54.383Z,0
2016-10-24T23:48:54.638Z,0
2016-10-24T23:49:54.319Z,0
2016-10-24T23:50:54.316Z,0
2016-10-24T23:51:54.321Z,0
2016-10-24T23:52:54.310Z,0
2016-10-24T23:53:54.292Z,0
2016-10-24T23:54:54.282Z,0
2016-10-24T23:55:54.285Z,0
2016-10-24T23:56:56.456Z,0
2016-10-24T23:57:56.747Z,0
2016-10-24T23:58:57.146Z,0
2016-10-24T23:59:56.263Z,0
